createdAt,value
2022-12-01T00:01:37.251Z,20.03
2022-12-01T00:04:05.959Z,21.07
2022-12-01T00:06:34.329Z,20.47
2022-12-01T00:09:20.605Z,20.87
2022-12-01T00:11:50.364Z,19.80
2022-12-01T00:14:18.736Z,19.40
2022-12-01T00:16:47.226Z,20.27
2022-12-01T00:19:15.801Z,19.33
2022-12-01T00:21:44.211Z,18.97
2022-12-01T00:24:13.121Z,19.77
2022-12-01T00:26:41.500Z,19.57
2022-12-01T00:29:11.200Z,19.63
2022-12-01T00:31:39.555Z,20.07
2022-12-01T00:34:11.388Z,19.50
2022-12-01T00:36:40.438Z,20.73
2022-12-01T00:39:09.146Z,18.53
2022-12-01T00:41:37.531Z,18.77
2022-12-01T00:44:06.500Z,20.23
2022-12-01T00:46:36.187Z,19.70
2022-12-01T00:49:04.999Z,21.27
2022-12-01T00:51:33.437Z,20.67
2022-12-01T00:54:01.811Z,20.20
2022-12-01T00:56:30.096Z,19.13
2022-12-01T00:58:58.516Z,20.37
2022-12-01T01:01:26.962Z,19.57
2022-12-01T01:03:56.618Z,20.30
2022-12-01T01:06:24.950Z,18.40
2022-12-01T01:08:53.406Z,20.17
2022-12-01T01:11:21.746Z,19.80
2022-12-01T01:13:50.126Z,18.53
2022-12-01T01:16:21.509Z,20.23
2022-12-01T01:18:50.434Z,20.33
2022-12-01T01:21:22.065Z,19.17
2022-12-01T01:23:51.136Z,20.00
2022-12-01T01:26:22.397Z,19.80
2022-12-01T01:28:51.659Z,19.83
2022-12-01T01:31:21.973Z,19.07
2022-12-01T01:33:50.559Z,18.73
2022-12-01T01:36:20.831Z,18.70
2022-12-01T01:38:51.514Z,19.20
2022-12-01T01:41:21.287Z,19.20
2022-12-01T01:43:51.341Z,19.60
2022-12-01T01:46:21.584Z,19.37
2022-12-01T01:48:54.487Z,18.13
2022-12-01T01:51:29.280Z,19.73
2022-12-01T01:54:02.541Z,17.73
2022-12-01T01:56:31.136Z,19.93
2022-12-01T01:59:00.538Z,19.30
2022-12-01T02:01:28.961Z,19.10
2022-12-01T02:03:57.498Z,18.33
2022-12-01T02:06:27.255Z,18.30
2022-12-01T02:08:55.777Z,18.70
2022-12-01T02:12:01.491Z,19.10
2022-12-01T02:14:52.163Z,18.70
2022-12-01T02:17:31.923Z,17.77
2022-12-01T02:20:37.130Z,18.97
2022-12-01T02:23:47.416Z,18.43
2022-12-01T02:26:39.311Z,19.13
2022-12-01T02:29:52.372Z,18.70
2022-12-01T02:32:32.123Z,18.00
2022-12-01T02:35:05.681Z,17.17
2022-12-01T02:37:41.743Z,17.83
2022-12-01T02:40:16.215Z,18.40
2022-12-01T02:42:52.035Z,19.00
2022-12-01T02:45:31.846Z,18.60
2022-12-01T02:48:03.855Z,17.67
2022-12-01T02:50:36.187Z,18.20
2022-12-01T02:53:07.572Z,16.23
2022-12-01T02:55:36.220Z,18.27
2022-12-01T02:58:14.421Z,17.80
2022-12-01T03:01:02.444Z,17.87
2022-12-01T03:03:48.500Z,17.77
2022-12-01T03:06:25.568Z,17.83
2022-12-01T03:09:03.283Z,17.03
2022-12-01T03:11:39.699Z,17.67
2022-12-01T03:14:18.130Z,17.13
2022-12-01T03:16:52.241Z,17.30
2022-12-01T03:19:30.698Z,18.33
2022-12-01T03:22:05.895Z,18.67
2022-12-01T03:24:36.715Z,16.27
2022-12-01T03:27:06.908Z,16.77
2022-12-01T03:29:40.279Z,17.60
2022-12-01T03:32:14.172Z,17.00
2022-12-01T03:34:49.637Z,17.07
2022-12-01T03:37:24.693Z,16.97
2022-12-01T03:40:00.687Z,17.07
2022-12-01T03:42:33.364Z,17.90
2022-12-01T03:45:07.228Z,17.80
2022-12-01T03:47:37.658Z,18.37
2022-12-01T03:50:13.317Z,17.77
2022-12-01T03:52:51.572Z,17.37
2022-12-01T03:55:23.932Z,17.40
2022-12-01T03:57:57.424Z,16.53
2022-12-01T04:00:26.750Z,17.23
2022-12-01T04:02:56.591Z,17.43
2022-12-01T04:05:27.424Z,18.07
2022-12-01T04:07:55.908Z,17.60
2022-12-01T04:10:24.247Z,16.60
2022-12-01T04:12:58.698Z,17.60
2022-12-01T04:15:27.976Z,17.23
2022-12-01T04:17:56.340Z,16.63
2022-12-01T04:20:26.084Z,17.00
2022-12-01T04:22:54.423Z,16.77
2022-12-01T04:25:23.207Z,16.47
2022-12-01T04:27:51.547Z,16.67
2022-12-01T04:30:20.198Z,16.87
2022-12-01T04:32:48.534Z,17.80
2022-12-01T04:35:17.302Z,16.93
2022-12-01T04:37:46.936Z,16.73
2022-12-01T04:40:15.534Z,16.80
2022-12-01T04:42:44.116Z,16.77
2022-12-01T04:45:12.544Z,16.93
2022-12-01T04:47:40.900Z,18.40
2022-12-01T04:50:09.832Z,16.10
2022-12-01T04:52:38.399Z,15.90
2022-12-01T04:55:09.132Z,16.27
2022-12-01T04:57:39.574Z,16.00
2022-12-01T05:00:13.276Z,17.80
2022-12-01T05:02:43.641Z,16.97
2022-12-01T05:05:12.408Z,15.47
2022-12-01T05:07:41.036Z,15.97
2022-12-01T05:10:13.668Z,18.23
2022-12-01T05:12:42.148Z,16.50
2022-12-01T05:15:11.166Z,15.77
2022-12-01T05:17:39.883Z,17.40
2022-12-01T05:20:27.144Z,16.87
2022-12-01T05:23:07.130Z,16.80
2022-12-01T05:25:38.276Z,17.17
2022-12-01T05:28:06.999Z,16.87
2022-12-01T05:30:35.378Z,17.40
2022-12-01T05:33:03.951Z,17.90
2022-12-01T05:35:34.302Z,18.60
2022-12-01T05:38:07.585Z,16.70
2022-12-01T05:40:38.419Z,17.30
2022-12-01T05:43:07.748Z,18.10
2022-12-01T05:45:36.560Z,16.10
2022-12-01T05:48:05.427Z,17.90
2022-12-01T05:50:33.818Z,18.07
2022-12-01T05:53:02.163Z,16.90
2022-12-01T05:55:30.507Z,18.53
2022-12-01T05:58:00.412Z,17.07
2022-12-01T06:00:29.689Z,16.73
2022-12-01T06:02:58.047Z,17.03
2022-12-01T06:05:26.460Z,17.30
2022-12-01T06:07:54.827Z,16.67
2022-12-01T06:10:23.461Z,16.20
2022-12-01T06:12:51.757Z,17.20
2022-12-01T06:15:21.480Z,15.57
2022-12-01T06:17:49.774Z,18.17
2022-12-01T06:20:18.544Z,16.37
2022-12-01T06:22:46.883Z,17.20
2022-12-01T06:25:15.204Z,17.33
2022-12-01T06:27:43.932Z,16.20
2022-12-01T06:30:12.722Z,17.03
2022-12-01T06:32:42.561Z,18.13
2022-12-01T06:35:10.960Z,18.07
2022-12-01T06:37:39.292Z,17.37
2022-12-01T06:40:08.999Z,18.07
2022-12-01T06:42:37.379Z,16.87
2022-12-01T06:45:06.534Z,17.43
2022-12-01T06:47:35.081Z,14.73
2022-12-01T06:50:08.032Z,15.93
2022-12-01T06:52:36.539Z,17.13
2022-12-01T06:55:05.171Z,18.10
2022-12-01T06:57:33.768Z,17.17
2022-12-01T07:00:02.264Z,18.13
2022-12-01T07:02:31.068Z,20.73
2022-12-01T07:04:59.552Z,18.40
2022-12-01T07:07:29.390Z,18.90
2022-12-01T07:09:57.742Z,16.73
2022-12-01T07:12:26.197Z,16.93
2022-12-01T07:14:54.590Z,17.73
2022-12-01T07:17:23.071Z,17.50
2022-12-01T07:19:51.516Z,18.47
2022-12-01T07:22:20.486Z,17.50
2022-12-01T07:24:50.276Z,16.93
2022-12-01T07:27:18.649Z,17.70
2022-12-01T07:29:47.290Z,16.93
2022-12-01T07:32:16.591Z,15.43
2022-12-01T07:34:44.903Z,17.27
2022-12-01T07:37:13.287Z,15.90
2022-12-01T07:39:41.686Z,16.47
2022-12-01T07:42:11.439Z,18.73
2022-12-01T07:44:39.802Z,18.50
2022-12-01T07:47:08.336Z,17.60
2022-12-01T07:49:36.761Z,17.67
2022-12-01T07:52:05.813Z,17.17
2022-12-01T07:54:34.204Z,18.13
2022-12-01T07:57:02.556Z,17.47
2022-12-01T07:59:32.215Z,16.07
2022-12-01T08:02:00.608Z,16.77
2022-12-01T08:04:29.062Z,15.97
2022-12-01T08:06:57.466Z,18.97
2022-12-01T08:09:25.827Z,17.80
2022-12-01T08:11:54.156Z,16.87
2022-12-01T08:14:22.549Z,18.77
2022-12-01T08:16:52.285Z,17.97
2022-12-01T08:19:20.792Z,17.37
2022-12-01T08:21:49.131Z,17.10
2022-12-01T08:24:17.588Z,16.40
2022-12-01T08:26:45.971Z,17.63
2022-12-01T08:29:19.715Z,17.63
2022-12-01T08:31:48.911Z,17.67
2022-12-01T08:34:18.666Z,18.37
2022-12-01T08:36:46.972Z,17.70
2022-12-01T08:39:16.100Z,18.50
2022-12-01T08:41:44.436Z,17.67
2022-12-01T08:44:13.282Z,17.13
2022-12-01T08:46:41.763Z,17.10
2022-12-01T08:49:10.070Z,16.67
2022-12-01T08:51:39.824Z,18.17
2022-12-01T08:54:08.480Z,16.47
2022-12-01T08:56:39.255Z,17.10
2022-12-01T08:59:08.236Z,17.00
2022-12-01T09:01:51.941Z,17.20
2022-12-01T09:04:21.331Z,16.90
2022-12-01T09:06:52.308Z,17.47
2022-12-01T09:09:23.251Z,17.57
2022-12-01T09:11:53.327Z,17.77
2022-12-01T09:14:23.503Z,17.20
2022-12-01T09:16:52.135Z,17.43
2022-12-01T09:19:24.767Z,17.87
2022-12-01T09:21:55.008Z,17.07
2022-12-01T09:24:23.420Z,18.00
2022-12-01T09:26:55.586Z,17.53
2022-12-01T09:29:24.111Z,17.23
2022-12-01T09:31:52.812Z,16.10
2022-12-01T09:34:21.926Z,16.63
2022-12-01T09:36:50.658Z,17.30
2022-12-01T09:39:22.047Z,16.43
2022-12-01T09:41:54.384Z,15.90
2022-12-01T09:44:35.211Z,29.80
2022-12-01T09:47:11.044Z,28.87
2022-12-01T09:49:47.569Z,24.40
2022-12-01T09:52:19.941Z,23.67
2022-12-01T09:54:50.444Z,21.13
2022-12-01T09:57:29.503Z,17.27
2022-12-01T09:59:59.155Z,19.73
2022-12-01T10:02:36.413Z,19.13
2022-12-01T10:05:10.880Z,18.57
2022-12-01T10:07:45.384Z,18.70
2022-12-01T10:10:18.834Z,17.57
2022-12-01T10:12:48.479Z,19.00
2022-12-01T10:15:30.961Z,19.73
2022-12-01T10:18:14.435Z,18.87
2022-12-01T10:20:47.582Z,17.53
2022-12-01T10:23:29.037Z,18.77
2022-12-01T10:26:01.176Z,19.80
2022-12-01T10:28:51.571Z,18.03
2022-12-01T10:31:21.951Z,16.93
2022-12-01T10:34:00.199Z,17.67
2022-12-01T10:36:31.607Z,19.77
2022-12-01T10:39:00.369Z,28.60
2022-12-01T10:41:33.639Z,19.87
2022-12-01T10:44:06.888Z,19.37
2022-12-01T10:46:41.894Z,17.77
2022-12-01T10:49:12.622Z,18.20
2022-12-01T10:51:53.996Z,18.93
2022-12-01T10:54:23.863Z,18.93
2022-12-01T10:56:58.401Z,19.43
2022-12-01T10:59:32.495Z,17.20
2022-12-01T11:02:02.769Z,17.13
2022-12-01T11:04:42.618Z,17.97
2022-12-01T11:07:17.402Z,18.00
2022-12-01T11:09:49.539Z,17.33
2022-12-01T11:12:20.532Z,17.17
2022-12-01T11:14:51.800Z,18.13
2022-12-01T11:17:31.612Z,18.40
2022-12-01T11:20:00.506Z,17.40
2022-12-01T11:22:32.074Z,16.57
2022-12-01T11:25:03.259Z,16.17
2022-12-01T11:27:37.608Z,16.03
2022-12-01T11:30:09.031Z,16.57
2022-12-01T11:32:40.518Z,16.23
2022-12-01T11:35:19.017Z,17.40
2022-12-01T11:40:48.751Z,16.50
2022-12-01T11:43:27.853Z,17.23
2022-12-01T11:45:59.394Z,15.63
2022-12-01T11:48:29.781Z,15.43
2022-12-01T11:51:04.215Z,17.33
2022-12-01T11:53:35.300Z,16.17
2022-12-01T11:56:17.441Z,16.10
2022-12-01T11:58:48.879Z,15.30
2022-12-01T12:01:29.492Z,15.70
2022-12-01T12:04:08.099Z,16.20
2022-12-01T12:06:45.592Z,15.20
2022-12-01T12:09:56.255Z,16.27
2022-12-01T12:12:37.222Z,16.00
2022-12-01T12:15:22.863Z,14.90
2022-12-01T12:18:08.445Z,25.40
2022-12-01T12:20:53.148Z,16.53
2022-12-01T12:23:50.622Z,17.00
2022-12-01T12:26:23.940Z,16.27
2022-12-01T12:29:13.967Z,15.00
2022-12-01T12:31:50.271Z,15.60
2022-12-01T12:34:28.510Z,16.87
2022-12-01T12:37:18.994Z,18.23
2022-12-01T12:40:01.827Z,14.43
2022-12-01T12:42:43.943Z,17.03
2022-12-01T12:45:21.776Z,16.50
2022-12-01T12:48:09.911Z,17.90
2022-12-01T12:50:44.876Z,15.77
2022-12-01T12:53:20.805Z,18.97
2022-12-01T12:55:53.724Z,17.33
2022-12-01T12:58:27.207Z,16.63
2022-12-01T13:01:00.731Z,16.93
2022-12-01T13:03:42.916Z,15.90
2022-12-01T13:06:15.848Z,17.03
2022-12-01T13:08:49.066Z,15.07
2022-12-01T13:11:23.235Z,15.53
2022-12-01T13:13:58.487Z,15.13
2022-12-01T13:16:32.427Z,16.13
2022-12-01T13:19:08.307Z,16.53
2022-12-01T13:21:41.044Z,15.87
2022-12-01T13:24:16.234Z,14.67
2022-12-01T13:26:51.911Z,13.70
2022-12-01T13:29:24.625Z,14.63
2022-12-01T13:31:55.018Z,16.53
2022-12-01T13:34:37.731Z,15.80
2022-12-01T13:37:06.593Z,14.23
2022-12-01T13:39:37.120Z,15.93
2022-12-01T13:42:08.643Z,15.83
2022-12-01T13:44:42.088Z,16.10
2022-12-01T13:47:40.118Z,15.13
2022-12-01T13:50:42.981Z,14.70
2022-12-01T13:53:14.690Z,16.00
2022-12-01T13:56:08.018Z,16.63
2022-12-01T13:58:48.353Z,22.47
2022-12-01T14:01:46.119Z,19.57
2022-12-01T14:04:35.306Z,18.17
2022-12-01T14:07:22.500Z,15.13
2022-12-01T14:09:54.168Z,16.03
2022-12-01T14:12:28.600Z,14.77
2022-12-01T14:15:00.756Z,15.07
2022-12-01T14:17:31.920Z,16.93
2022-12-01T14:20:20.072Z,15.03
2022-12-01T14:22:50.481Z,14.77
2022-12-01T14:25:29.108Z,14.80
2022-12-01T14:28:02.412Z,15.20
2022-12-01T14:31:05.704Z,15.73
2022-12-01T14:33:46.830Z,14.97
2022-12-01T14:36:26.357Z,15.77
2022-12-01T14:39:02.137Z,14.87
2022-12-01T14:41:39.639Z,18.50
2022-12-01T14:44:15.295Z,15.50
2022-12-01T14:46:47.932Z,14.97
2022-12-01T14:49:22.531Z,15.80
2022-12-01T14:51:57.379Z,15.87
2022-12-01T14:54:30.172Z,14.53
2022-12-01T14:57:08.150Z,15.13
2022-12-01T14:59:38.663Z,14.40
2022-12-01T15:02:10.564Z,16.40
2022-12-01T15:05:07.100Z,15.93
2022-12-01T15:07:39.387Z,14.83
2022-12-01T15:10:18.553Z,15.17
2022-12-01T15:12:49.263Z,14.70
2022-12-01T15:15:23.650Z,14.13
2022-12-01T15:17:53.419Z,14.30
2022-12-01T15:20:34.087Z,14.50
2022-12-01T15:23:09.075Z,14.97
2022-12-01T15:25:37.540Z,15.80
2022-12-01T15:28:14.634Z,15.10
2022-12-01T15:30:48.191Z,16.17
2022-12-01T15:33:26.780Z,14.97
2022-12-01T15:35:57.440Z,16.43
2022-12-01T15:38:29.597Z,14.77
2022-12-01T15:41:28.107Z,14.63
2022-12-01T15:47:35.846Z,14.40
2022-12-01T15:50:06.031Z,14.90
2022-12-01T15:52:43.518Z,15.27
2022-12-01T15:55:25.871Z,14.83
2022-12-01T15:57:54.433Z,15.20
2022-12-01T16:00:24.332Z,14.27
2022-12-01T16:02:56.407Z,13.77
2022-12-01T16:05:28.120Z,12.83
2022-12-01T16:08:13.426Z,14.03
2022-12-01T16:10:42.406Z,13.43
2022-12-01T16:13:40.756Z,14.27
2022-12-01T16:16:29.428Z,14.57
2022-12-01T16:19:02.161Z,14.90
2022-12-01T16:21:34.104Z,23.43
2022-12-01T16:24:05.448Z,14.97
2022-12-01T16:26:34.952Z,15.47
2022-12-01T16:29:03.433Z,15.17
2022-12-01T16:31:33.161Z,13.23
2022-12-01T16:34:18.599Z,14.87
2022-12-01T16:36:52.780Z,14.30
2022-12-01T16:39:21.183Z,13.47
2022-12-01T16:41:49.540Z,14.00
2022-12-01T16:44:28.553Z,12.53
2022-12-01T16:46:57.467Z,15.67
2022-12-01T16:49:27.298Z,14.20
2022-12-01T16:51:57.190Z,14.60
2022-12-01T16:54:26.506Z,14.67
2022-12-01T16:56:54.905Z,14.87
2022-12-01T16:59:23.443Z,14.20
2022-12-01T17:01:51.982Z,14.70
2022-12-01T17:04:20.463Z,13.73
2022-12-01T17:06:50.168Z,13.93
2022-12-01T17:09:19.001Z,13.80
2022-12-01T17:11:47.675Z,13.60
2022-12-01T17:14:16.063Z,14.37
2022-12-01T17:16:44.662Z,14.53
2022-12-01T17:19:13.024Z,14.00
2022-12-01T17:21:42.080Z,15.17
2022-12-01T17:24:15.028Z,16.50
2022-12-01T17:26:47.152Z,27.23
2022-12-01T17:29:15.516Z,32.87
2022-12-01T17:31:43.937Z,22.93
2022-12-01T17:34:12.402Z,26.27
2022-12-01T17:36:41.688Z,16.17
2022-12-01T17:39:11.365Z,16.30
2022-12-01T17:41:40.990Z,14.47
2022-12-01T17:44:09.376Z,15.47
2022-12-01T17:46:38.473Z,15.63
2022-12-01T17:49:09.472Z,14.57
2022-12-01T17:51:38.605Z,13.57
2022-12-01T17:54:07.227Z,12.90
2022-12-01T17:56:36.948Z,15.10
2022-12-01T17:59:05.372Z,15.53
2022-12-01T18:01:33.772Z,16.17
2022-12-01T18:04:02.416Z,15.40
2022-12-01T18:06:30.774Z,13.73
2022-12-01T18:09:01.139Z,15.50
2022-12-01T18:11:29.740Z,16.17
2022-12-01T18:13:59.623Z,15.87
2022-12-01T18:16:30.223Z,15.73
2022-12-01T18:19:00.110Z,15.20
2022-12-01T18:21:29.640Z,16.00
2022-12-01T18:24:00.671Z,15.30
2022-12-01T18:26:30.775Z,15.23
2022-12-01T18:29:02.600Z,16.00
2022-12-01T18:31:31.594Z,18.57
2022-12-01T18:34:02.603Z,24.93
2022-12-01T18:36:32.252Z,21.77
2022-12-01T18:39:02.285Z,18.83
2022-12-01T18:41:31.632Z,35.50
2022-12-01T18:44:01.357Z,16.07
2022-12-01T18:46:30.177Z,15.07
2022-12-01T18:49:02.005Z,12.37
2022-12-01T18:51:31.392Z,13.60
2022-12-01T18:54:01.801Z,16.53
2022-12-01T18:56:30.504Z,14.73
2022-12-01T18:59:02.032Z,14.83
2022-12-01T19:01:32.516Z,13.57
2022-12-01T19:04:01.452Z,13.43
2022-12-01T19:06:31.060Z,14.33
2022-12-01T19:09:00.981Z,14.77
2022-12-01T19:11:29.796Z,12.87
2022-12-01T19:13:58.591Z,14.53
2022-12-01T19:16:28.612Z,16.43
2022-12-01T19:18:57.011Z,18.40
2022-12-01T19:21:25.485Z,17.00
2022-12-01T19:23:54.520Z,17.53
2022-12-01T19:26:25.597Z,15.50
2022-12-01T19:28:53.926Z,15.43
2022-12-01T19:31:24.302Z,15.90
2022-12-01T19:33:55.317Z,17.57
2022-12-01T19:36:30.840Z,16.60
2022-12-01T19:39:00.694Z,15.80
2022-12-01T19:41:32.096Z,16.17
2022-12-01T19:44:00.487Z,16.63
2022-12-01T19:46:28.913Z,15.20
2022-12-01T19:49:01.262Z,16.67
2022-12-01T19:51:35.087Z,17.37
2022-12-01T19:54:04.210Z,15.60
2022-12-01T19:56:32.915Z,15.83
2022-12-01T19:59:01.766Z,14.80
2022-12-01T20:01:30.206Z,15.27
2022-12-01T20:04:00.005Z,14.80
2022-12-01T20:06:30.715Z,16.67
2022-12-01T20:09:01.877Z,14.73
2022-12-01T20:11:32.728Z,15.47
2022-12-01T20:14:01.153Z,15.47
2022-12-01T20:16:32.034Z,15.80
2022-12-01T20:19:04.064Z,20.00
2022-12-01T20:21:35.197Z,17.77
2022-12-01T20:24:05.548Z,16.93
2022-12-01T20:26:38.302Z,17.60
2022-12-01T20:29:08.946Z,20.50
2022-12-01T20:31:37.742Z,22.67
2022-12-01T20:34:09.804Z,17.97
2022-12-01T20:36:38.774Z,17.10
2022-12-01T20:39:08.065Z,16.13
2022-12-01T20:41:36.982Z,16.50
2022-12-01T20:44:07.703Z,15.10
2022-12-01T20:46:36.962Z,14.87
2022-12-01T20:49:07.672Z,16.13
2022-12-01T20:51:36.513Z,14.70
2022-12-01T20:56:55.544Z,16.47
2022-12-01T20:59:24.377Z,15.20
2022-12-01T21:01:52.817Z,13.77
2022-12-01T21:04:22.597Z,13.20
2022-12-01T21:06:51.097Z,13.20
2022-12-01T21:09:19.469Z,13.43
2022-12-01T21:12:07.655Z,12.97
2022-12-01T21:14:38.494Z,12.33
2022-12-01T21:17:20.076Z,13.60
2022-12-01T21:19:56.508Z,13.93
2022-12-01T21:22:26.413Z,14.13
2022-12-01T21:25:01.819Z,13.93
2022-12-01T21:27:30.917Z,13.83
2022-12-01T21:29:59.300Z,13.53
2022-12-01T21:32:31.341Z,13.40
2022-12-01T21:35:09.705Z,12.23
2022-12-01T21:37:38.101Z,11.23
2022-12-01T21:40:16.774Z,19.03
2022-12-01T21:42:48.145Z,19.00
2022-12-01T21:45:23.702Z,12.20
2022-12-01T21:47:52.065Z,10.77
2022-12-01T21:50:25.384Z,11.60
2022-12-01T21:52:59.997Z,12.73
2022-12-01T21:55:44.648Z,12.90
2022-12-01T21:58:24.328Z,12.63
2022-12-01T22:00:53.631Z,11.50
2022-12-01T22:03:35.435Z,11.87
2022-12-01T22:06:32.991Z,11.30
2022-12-01T22:09:03.507Z,12.57
2022-12-01T22:11:32.587Z,12.30
2022-12-01T22:14:12.071Z,13.23
2022-12-01T22:16:43.475Z,12.93
2022-12-01T22:19:26.217Z,11.13
2022-12-01T22:22:01.792Z,12.00
2022-12-01T22:24:41.307Z,11.50
2022-12-01T22:27:29.170Z,19.13
2022-12-01T22:29:59.737Z,11.70
2022-12-01T22:32:37.611Z,35.13
2022-12-01T22:35:26.423Z,23.93
2022-12-01T22:38:00.988Z,14.43
2022-12-01T22:40:34.658Z,14.77
2022-12-01T22:43:22.592Z,14.33
2022-12-01T22:45:54.078Z,14.70
2022-12-01T22:48:36.890Z,13.77
2022-12-01T22:51:22.441Z,15.70
2022-12-01T22:53:55.289Z,13.03
2022-12-01T22:56:38.164Z,13.13
2022-12-01T22:59:15.379Z,14.07
2022-12-01T23:01:50.110Z,13.80
2022-12-01T23:04:26.566Z,15.00
2022-12-01T23:07:01.426Z,14.73
2022-12-01T23:09:35.428Z,13.70
2022-12-01T23:12:21.512Z,12.80
2022-12-01T23:14:53.092Z,11.00
2022-12-01T23:17:23.406Z,12.90
2022-12-01T23:19:53.898Z,12.60
2022-12-01T23:22:22.257Z,12.47
2022-12-01T23:24:52.351Z,12.53
2022-12-01T23:27:21.207Z,12.67
2022-12-01T23:29:49.533Z,12.43
2022-12-01T23:32:18.732Z,13.00
2022-12-01T23:34:47.071Z,14.50
2022-12-01T23:37:32.415Z,13.37
2022-12-01T23:40:03.439Z,13.37
2022-12-01T23:42:32.177Z,14.40
2022-12-01T23:45:00.559Z,13.60
2022-12-01T23:47:31.222Z,14.43
2022-12-01T23:50:04.443Z,14.97
2022-12-01T23:52:37.483Z,14.27
2022-12-01T23:55:29.698Z,14.17
2022-12-01T23:57:59.509Z,13.53
